Time;durP1;ratioP1;P1;durP2;ratioP2;P2;SDS_P1;SDS_P2;PMS_P1;PMS_P2;Temp;Humidity;BMP_temperature;BMP_pressure;BME280_temperature;BME280_humidity;BME280_pressure;Samples;Min_cycle;Max_cycle;Signal;HPM_P1;HPM_P2
2022/07/04 00:02:18;;;;;;;8.05;1.35;;;21.10;88.60;;;;;;5012309;28;20049;-56
2022/07/04 00:04:43;;;;;;;6.38;1.27;;;21.10;89.50;;;;;;5011965;28;20026;-56
2022/07/04 00:07:09;;;;;;;6.13;1.30;;;21.10;89.30;;;;;;4993732;28;20026;-57
2022/07/04 00:09:34;;;;;;;2.80;1.10;;;21.10;88.00;;;;;;5011931;28;20026;-52
2022/07/04 00:12:00;;;;;;;12.40;1.60;;;21.10;87.90;;;;;;5012088;28;20033;-56
2022/07/04 00:14:25;;;;;;;1.63;0.98;;;21.10;88.00;;;;;;5011885;28;20096;-55
2022/07/04 00:16:51;;;;;;;4.57;0.93;;;21.10;88.20;;;;;;5011059;28;20026;-54
2022/07/04 00:19:16;;;;;;;0.95;0.70;;;21.10;87.80;;;;;;5011794;28;20030;-51
2022/07/04 00:21:42;;;;;;;3.17;1.20;;;21.00;87.40;;;;;;5012135;28;20026;-57
2022/07/04 00:24:07;;;;;;;0.68;0.68;;;21.00;87.00;;;;;;5011944;28;20030;-56
2022/07/04 00:26:33;;;;;;;1.15;0.70;;;20.90;87.00;;;;;;5011971;28;20038;-53
2022/07/04 00:28:59;;;;;;;4.72;1.17;;;20.90;86.80;;;;;;5011167;28;20100;-50
2022/07/04 00:31:24;;;;;;;3.05;0.85;;;20.90;86.70;;;;;;5011578;28;20180;-57
2022/07/04 00:33:49;;;;;;;3.20;0.90;;;20.80;86.90;;;;;;5011708;28;20477;-57
2022/07/04 00:36:15;;;;;;;2.53;0.85;;;20.80;87.10;;;;;;5011671;28;20104;-56
2022/07/04 00:38:41;;;;;;;1.65;0.77;;;20.80;87.00;;;;;;5011323;28;20022;-51
2022/07/04 00:41:06;;;;;;;3.78;0.80;;;20.80;87.10;;;;;;5011847;28;20030;-57
2022/07/04 00:43:32;;;;;;;3.50;0.90;;;20.70;87.40;;;;;;5011661;28;20041;-53
2022/07/04 00:45:57;;;;;;;1.30;0.90;;;20.70;87.50;;;;;;5011571;28;20022;-56
2022/07/04 00:48:23;;;;;;;1.17;0.70;;;20.60;87.50;;;;;;5011153;28;20025;-56
2022/07/04 00:50:48;;;;;;;3.60;1.15;;;20.60;87.90;;;;;;5011730;28;20069;-53
2022/07/04 00:53:15;;;;;;;2.53;1.02;;;20.50;88.10;;;;;;5012191;28;20029;-56
2022/07/04 00:55:41;;;;;;;5.95;1.20;;;20.50;88.40;;;;;;5010335;28;20030;-54
2022/07/04 00:58:07;;;;;;;5.57;1.30;;;20.40;88.50;;;;;;5010913;28;20028;-56
2022/07/04 01:00:33;;;;;;;5.50;1.20;;;20.40;88.70;;;;;;5011778;28;20065;-51
2022/07/04 01:02:59;;;;;;;3.90;1.10;;;20.40;88.90;;;;;;5011545;28;20524;-56
2022/07/04 01:05:25;;;;;;;1.77;1.17;;;20.40;89.10;;;;;;5011411;28;20034;-57
2022/07/04 01:07:51;;;;;;;1.90;0.75;;;20.40;89.20;;;;;;5010497;28;20053;-56
2022/07/04 01:10:16;;;;;;;4.00;0.82;;;20.30;89.40;;;;;;5011430;28;20029;-56
2022/07/04 01:12:42;;;;;;;0.95;0.90;;;20.30;89.70;;;;;;5013204;28;20041;-52
2022/07/04 01:15:08;;;;;;;1.42;1.00;;;20.20;89.90;;;;;;5050313;22;20048;-51
2022/07/04 01:17:34;;;;;;;1.33;0.90;;;20.10;90.00;;;;;;5054034;28;20025;-48
2022/07/04 01:19:59;;;;;;;5.05;1.13;;;20.10;90.10;;;;;;5036973;28;20502;-49
2022/07/04 01:22:25;;;;;;;5.55;2.25;;;20.00;90.30;;;;;;5054667;28;20059;-46
2022/07/04 01:24:51;;;;;;;3.05;1.00;;;19.90;90.50;;;;;;5054504;28;20021;-47
2022/07/04 01:27:16;;;;;;;1.05;0.80;;;19.90;90.60;;;;;;5053838;28;20028;-48
2022/07/04 01:29:42;;;;;;;0.95;0.93;;;19.90;90.80;;;;;;5054380;28;20025;-50
2022/07/04 01:32:09;;;;;;;5.22;1.10;;;19.80;91.20;;;;;;5037097;28;20515;-48
2022/07/04 01:34:35;;;;;;;3.40;1.00;;;19.80;91.00;;;;;;5054157;28;20040;-48
2022/07/04 01:37:01;;;;;;;4.80;1.13;;;19.80;91.20;;;;;;5053675;28;20018;-47
2022/07/04 01:39:30;;;;;;;4.75;1.52;;;19.70;91.30;;;;;;5054295;28;20021;-50
2022/07/04 01:41:56;;;;;;;0.88;0.80;;;19.70;91.50;;;;;;5036104;28;20108;-51
2022/07/04 01:44:21;;;;;;;4.00;1.30;;;19.60;91.80;;;;;;5054229;28;20107;-51
2022/07/04 01:46:47;;;;;;;3.25;1.15;;;19.50;92.00;;;;;;5035839;28;20031;-49
2022/07/04 01:49:13;;;;;;;4.22;1.27;;;19.50;92.20;;;;;;5054430;28;20029;-48
2022/07/04 01:51:46;;;;;;;1.75;1.00;;;19.50;92.50;;;;;;5054582;28;20029;-46
2022/07/04 01:54:12;;;;;;;1.42;0.80;;;19.50;93.30;;;;;;5053852;28;20124;-47
2022/07/04 01:56:38;;;;;;;10.38;1.65;;;19.40;93.70;;;;;;5054371;28;20100;-49
2022/07/04 01:59:03;;;;;;;4.95;1.13;;;19.40;93.70;;;;;;5053323;28;20028;-50
2022/07/04 02:01:29;;;;;;;3.83;1.55;;;19.30;93.80;;;;;;5054266;28;20039;-47
2022/07/04 02:03:59;;;;;;;1.65;1.20;;;19.30;93.90;;;;;;5053919;28;20112;-49
2022/07/04 02:06:25;;;;;;;2.60;1.08;;;19.20;94.30;;;;;;5053827;28;20370;-52
2022/07/04 02:14:20;;;;;;;2.47;1.08;;;19.20;94.70;;;;;;5053504;28;20055;-50
2022/07/04 02:16:46;;;;;;;1.80;1.30;;;19.20;95.00;;;;;;5053289;28;20033;-49
2022/07/04 02:19:11;;;;;;;3.70;1.10;;;19.10;95.00;;;;;;5035285;28;20021;-47
2022/07/04 02:21:37;;;;;;;9.15;1.45;;;19.00;95.20;;;;;;5053537;28;20029;-49
2022/07/04 02:24:03;;;;;;;1.25;1.05;;;19.10;95.40;;;;;;5052220;28;20033;-51
2022/07/04 02:26:28;;;;;;;1.52;1.08;;;19.00;95.30;;;;;;5053445;28;20100;-50
2022/07/04 02:28:54;;;;;;;4.07;1.20;;;19.00;95.50;;;;;;5052977;28;20024;-49
2022/07/04 02:31:19;;;;;;;2.95;1.10;;;18.90;95.50;;;;;;5053629;28;20033;-50
2022/07/04 02:33:45;;;;;;;2.85;1.42;;;18.90;95.70;;;;;;5052899;28;20155;-49
2022/07/04 02:36:10;;;;;;;1.13;1.10;;;18.80;95.80;;;;;;5053340;28;20036;-48
2022/07/04 02:38:36;;;;;;;3.97;1.63;;;18.80;96.10;;;;;;5052473;28;20021;-51
2022/07/04 02:41:01;;;;;;;5.35;1.20;;;18.80;96.30;;;;;;5053341;28;20037;-46
2022/07/04 02:43:27;;;;;;;1.40;1.30;;;18.80;96.70;;;;;;5053444;28;20029;-48
2022/07/04 02:45:52;;;;;;;2.75;1.20;;;18.80;97.00;;;;;;5053002;28;20413;-48
2022/07/04 02:48:18;;;;;;;3.28;1.08;;;18.70;97.40;;;;;;5051996;28;20108;-47
2022/07/04 02:50:43;;;;;;;3.63;1.10;;;18.70;97.70;;;;;;5053111;28;20108;-50
2022/07/04 02:53:09;;;;;;;7.35;1.30;;;18.70;97.70;;;;;;5052578;28;20033;-49
2022/07/04 02:55:34;;;;;;;3.60;1.30;;;18.70;97.80;;;;;;5052523;28;20036;-49
2022/07/04 02:58:00;;;;;;;1.95;1.15;;;18.60;98.00;;;;;;5029856;28;20099;-47
2022/07/04 03:00:25;;;;;;;6.90;1.38;;;18.50;98.20;;;;;;5052370;28;20373;-51
2022/07/04 03:02:51;;;;;;;1.40;1.13;;;18.50;98.60;;;;;;5040301;28;20113;-49
2022/07/04 03:05:16;;;;;;;2.15;1.08;;;18.40;98.70;;;;;;5041565;28;20025;-47
2022/07/04 03:07:42;;;;;;;1.90;1.30;;;18.40;98.90;;;;;;5052207;28;20029;-50
2022/07/04 03:10:08;;;;;;;5.78;1.83;;;18.40;99.10;;;;;;5052685;28;20116;-51
2022/07/04 03:12:33;;;;;;;2.65;1.27;;;18.40;99.10;;;;;;5051832;28;20032;-50
2022/07/04 03:14:59;;;;;;;3.88;1.45;;;18.30;99.10;;;;;;5031021;28;20032;-49
2022/07/04 03:17:29;;;;;;;10.15;1.92;;;18.30;99.10;;;;;;5031515;28;20040;-47
2022/07/04 03:19:54;;;;;;;3.63;1.40;;;18.30;99.30;;;;;;5032717;28;20088;-47
2022/07/04 03:22:20;;;;;;;6.40;1.27;;;18.30;99.40;;;;;;5032483;28;20105;-49
2022/07/04 03:24:45;;;;;;;2.10;1.35;;;18.30;99.40;;;;;;5041080;28;20389;-47
2022/07/04 03:27:11;;;;;;;1.25;1.25;;;18.30;99.50;;;;;;5051558;28;20028;-49
2022/07/04 03:29:36;;;;;;;3.30;1.40;;;18.30;99.50;;;;;;5051647;28;20545;-47
2022/07/04 03:32:02;;;;;;;1.73;1.33;;;18.30;99.60;;;;;;5052112;28;20378;-47
2022/07/04 03:34:28;;;;;;;1.67;1.30;;;18.30;99.50;;;;;;5051625;28;20178;-48
2022/07/04 03:36:53;;;;;;;5.10;1.42;;;18.30;99.70;;;;;;5051189;28;20025;-48
2022/07/04 03:39:19;;;;;;;2.15;1.60;;;18.30;99.80;;;;;;5051231;28;20032;-49
2022/07/04 03:41:44;;;;;;;3.53;1.60;;;18.30;99.60;;;;;;5047287;28;20024;-46
2022/07/04 03:44:10;;;;;;;1.90;1.70;;;18.30;99.70;;;;;;5051971;28;20047;-49
2022/07/04 03:46:35;;;;;;;2.72;1.60;;;18.30;99.80;;;;;;5051527;28;20031;-50
2022/07/04 03:49:01;;;;;;;2.10;1.33;;;18.30;99.80;;;;;;5031581;28;20033;-47
2022/07/04 03:51:26;;;;;;;1.60;1.45;;;18.30;99.80;;;;;;5032154;28;20087;-48
2022/07/04 03:53:52;;;;;;;3.45;1.83;;;18.30;99.90;;;;;;5032225;28;20029;-47
2022/07/04 03:56:17;;;;;;;2.58;1.60;;;18.30;99.90;;;;;;5031693;28;20505;-49
2022/07/04 03:58:44;;;;;;;2.10;1.30;;;18.40;99.80;;;;;;5036428;28;20043;-49
2022/07/04 04:01:09;;;;;;;1.52;1.30;;;18.50;99.90;;;;;;5032082;28;20013;-50
2022/07/04 04:06:19;;;;;;;1.65;1.13;;;18.40;99.90;;;;;;5031620;28;20040;-47
2022/07/04 04:08:44;;;;;;;4.85;2.03;;;18.50;99.90;;;;;;5030969;28;20029;-47
2022/07/04 04:11:10;;;;;;;2.40;1.60;;;18.60;99.90;;;;;;5013964;28;20029;-51
2022/07/04 04:13:36;;;;;;;3.42;1.35;;;18.60;99.90;;;;;;5031531;28;20083;-47
2022/07/04 04:16:01;;;;;;;2.53;1.45;;;18.70;99.90;;;;;;5031313;28;20029;-48
2022/07/04 04:18:27;;;;;;;4.75;1.65;;;18.70;99.90;;;;;;5030781;28;20473;-48
2022/07/04 04:20:52;;;;;;;1.95;1.45;;;18.70;99.90;;;;;;5031616;28;20106;-46
2022/07/04 04:23:18;;;;;;;2.53;1.45;;;18.70;99.90;;;;;;5031683;28;20033;-47
2022/07/04 04:25:43;;;;;;;3.55;1.45;;;18.70;99.90;;;;;;5031354;28;20044;-48
2022/07/04 04:28:08;;;;;;;1.20;1.10;;;18.70;99.90;;;;;;5012878;28;20030;-47
2022/07/04 04:30:34;;;;;;;4.00;1.33;;;18.80;99.90;;;;;;5031407;28;20739;-47
2022/07/04 04:33:00;;;;;;;2.65;1.20;;;18.80;99.90;;;;;;5013715;28;20017;-48
2022/07/04 04:35:25;;;;;;;3.63;1.13;;;18.90;99.90;;;;;;5032106;28;20108;-47
2022/07/04 04:37:51;;;;;;;3.05;1.30;;;18.90;99.90;;;;;;5050414;28;20481;-47
2022/07/04 04:40:17;;;;;;;2.15;1.10;;;18.90;99.90;;;;;;5051280;28;20028;-49
2022/07/04 04:42:42;;;;;;;3.10;1.10;;;19.00;99.90;;;;;;5051540;28;20025;-47
2022/07/04 04:45:08;;;;;;;2.17;1.08;;;19.00;99.90;;;;;;5051027;28;20028;-48
2022/07/04 04:47:34;;;;;;;7.10;1.60;;;19.00;99.90;;;;;;5051985;28;20029;-48
2022/07/04 04:50:00;;;;;;;2.22;1.60;;;19.10;99.90;;;;;;5055350;28;20025;-49
2022/07/04 04:52:26;;;;;;;5.38;1.73;;;19.10;99.90;;;;;;5055058;28;20552;-49
2022/07/04 04:54:51;;;;;;;4.88;1.52;;;19.30;99.90;;;;;;5055064;28;20069;-48
2022/07/04 04:57:17;;;;;;;3.72;1.05;;;19.60;99.90;;;;;;5054281;28;20029;-52
2022/07/04 04:59:43;;;;;;;4.10;1.38;;;20.10;99.80;;;;;;5055143;28;20496;-50
2022/07/04 05:02:08;;;;;;;3.00;1.35;;;20.60;98.80;;;;;;5054998;28;20028;-51
2022/07/04 05:04:34;;;;;;;8.15;1.48;;;21.20;97.20;;;;;;5055170;28;20033;-49
2022/07/04 05:06:59;;;;;;;2.70;1.33;;;21.90;95.40;;;;;;5054335;28;20071;-45
2022/07/04 05:09:25;;;;;;;2.20;1.10;;;22.90;93.50;;;;;;5054640;28;20476;-48
2022/07/04 05:11:50;;;;;;;1.75;1.38;;;24.00;91.30;;;;;;5054989;28;20040;-46
2022/07/04 05:14:16;;;;;;;3.22;1.30;;;24.80;89.70;;;;;;5054507;28;20029;-50
2022/07/04 05:16:42;;;;;;;4.35;1.20;;;25.70;87.20;;;;;;5054804;28;20033;-46
2022/07/04 05:19:07;;;;;;;2.75;1.00;;;26.40;83.80;;;;;;5054189;28;20025;-47
2022/07/04 05:21:33;;;;;;;2.38;1.00;;;27.00;81.40;;;;;;5055059;28;20555;-49
2022/07/04 05:23:58;;;;;;;4.50;0.90;;;27.60;78.60;;;;;;5054946;28;20484;-47
2022/07/04 05:26:25;;;;;;;5.35;1.63;;;28.00;77.30;;;;;;5054663;28;20036;-49
2022/07/04 05:28:50;;;;;;;4.28;1.15;;;28.30;76.10;;;;;;5053917;28;20033;-48
2022/07/04 05:31:15;;;;;;;1.25;1.05;;;28.60;74.70;;;;;;5049420;28;20076;-53
2022/07/04 05:33:41;;;;;;;3.38;0.90;;;28.90;73.50;;;;;;5053260;28;20029;-50
2022/07/04 05:36:07;;;;;;;3.53;1.35;;;29.30;72.40;;;;;;5053816;28;20069;-48
2022/07/04 05:38:32;;;;;;;4.03;1.20;;;29.50;71.70;;;;;;5053483;28;20064;-47
2022/07/04 05:40:58;;;;;;;3.05;1.27;;;29.50;71.00;;;;;;5053262;28;20112;-53
2022/07/04 05:43:25;;;;;;;1.23;1.00;;;29.10;70.80;;;;;;5016393;28;20433;-47
2022/07/04 05:45:51;;;;;;;3.30;1.33;;;28.70;72.40;;;;;;5041477;28;20104;-53
2022/07/04 05:48:17;;;;;;;3.05;1.10;;;28.80;72.70;;;;;;5051368;28;20028;-51
2022/07/04 05:50:42;;;;;;;3.33;1.35;;;29.00;71.70;;;;;;5052264;28;20029;-54
2022/07/04 05:53:08;;;;;;;2.20;1.10;;;28.80;71.60;;;;;;5053720;28;20183;-51
2022/07/04 05:55:34;;;;;;;1.83;1.27;;;29.30;71.30;;;;;;5053426;28;20040;-52
2022/07/04 05:58:00;;;;;;;1.80;1.13;;;29.70;70.30;;;;;;5034850;28;20443;-48
2022/07/04 06:00:26;;;;;;;5.57;1.05;;;29.70;70.10;;;;;;5054254;28;20436;-47
2022/07/04 06:02:51;;;;;;;2.83;0.90;;;30.00;69.10;;;;;;5053906;28;20029;-52
2022/07/04 06:05:17;;;;;;;3.10;0.80;;;29.50;68.80;;;;;;5051893;28;20043;-49
2022/07/04 06:07:42;;;;;;;5.78;0.98;;;29.40;70.10;;;;;;5053380;28;20027;-51
2022/07/04 06:10:09;;;;;;;2.88;1.33;;;29.20;69.60;;;;;;5053953;28;20108;-49
2022/07/04 06:12:35;;;;;;;4.43;1.15;;;29.60;68.10;;;;;;5053907;28;20017;-50
2022/07/04 06:15:00;;;;;;;1.52;1.10;;;29.60;68.20;;;;;;5053638;28;20594;-48
2022/07/04 06:17:26;;;;;;;2.13;0.90;;;30.20;67.00;;;;;;5052821;28;20025;-52
2022/07/04 06:19:51;;;;;;;1.73;0.80;;;30.70;66.40;;;;;;5053646;28;20447;-47
2022/07/04 06:22:17;;;;;;;1.70;0.90;;;30.60;65.40;;;;;;5053643;28;20025;-51
2022/07/04 06:24:42;;;;;;;1.50;0.88;;;29.60;66.90;;;;;;5053422;28;20067;-51
2022/07/04 06:27:08;;;;;;;5.50;1.35;;;28.80;68.50;;;;;;5052788;28;20029;-51
2022/07/04 06:29:33;;;;;;;2.72;0.63;;;29.50;67.40;;;;;;5053438;28;20029;-52
2022/07/04 06:31:59;;;;;;;3.45;0.70;;;30.20;66.90;;;;;;5053553;28;20401;-48
2022/07/04 06:37:08;;;;;;;1.90;0.95;;;30.60;64.50;;;;;;5052588;28;20104;-53
2022/07/04 06:39:34;;;;;;;3.10;0.90;;;31.00;63.90;;;;;;5053287;28;20210;-52
2022/07/04 06:41:59;;;;;;;1.15;0.90;;;30.90;64.10;;;;;;5053328;28;20072;-50
2022/07/04 06:44:25;;;;;;;4.03;1.00;;;31.30;63.20;;;;;;5053006;28;20505;-52
2022/07/04 06:46:50;;;;;;;2.03;1.27;;;32.10;62.60;;;;;;5052698;28;20078;-50
2022/07/04 06:49:16;;;;;;;0.77;0.77;;;32.60;61.60;;;;;;5052982;28;20028;-52
2022/07/04 06:51:42;;;;;;;2.30;0.80;;;33.10;60.40;;;;;;5053234;28;20033;-50
2022/07/04 06:54:07;;;;;;;1.95;0.80;;;33.30;60.00;;;;;;5035038;28;20503;-53
2022/07/04 06:56:33;;;;;;;0.70;0.70;;;33.10;60.00;;;;;;5052949;28;20029;-51
2022/07/04 06:58:59;;;;;;;4.47;0.80;;;32.80;57.80;;;;;;5052324;28;20029;-50
2022/07/04 07:01:24;;;;;;;3.03;1.10;;;33.10;58.10;;;;;;5035642;28;20029;-49
2022/07/04 07:03:50;;;;;;;3.05;1.15;;;32.70;58.20;;;;;;5053254;28;20032;-49
2022/07/04 07:06:16;;;;;;;3.15;1.02;;;31.50;60.00;;;;;;5051217;28;20040;-49
2022/07/04 07:08:41;;;;;;;4.15;0.82;;;31.00;60.40;;;;;;5034281;28;20489;-50
2022/07/04 07:11:13;;;;;;;2.35;0.85;;;31.30;59.50;;;;;;5052512;28;20033;-49
2022/07/04 07:13:47;;;;;;;2.88;0.93;;;31.50;60.00;;;;;;5052917;28;20033;-49
2022/07/04 07:16:13;;;;;;;;;;;31.50;60.10;;;;;;5054111;28;20033;-55
2022/07/04 07:18:38;;;;;;;1.48;0.70;;;31.30;59.60;;;;;;5052011;28;19905;-50
2022/07/04 07:21:04;;;;;;;3.67;0.70;;;31.80;59.10;;;;;;5052529;28;20060;-49
2022/07/04 07:23:30;;;;;;;1.65;1.05;;;31.50;58.50;;;;;;5052468;28;20109;-50
2022/07/04 07:25:56;;;;;;;1.80;0.88;;;32.00;57.90;;;;;;5034418;28;20029;-50
2022/07/04 07:28:21;;;;;;;1.92;0.80;;;31.90;57.70;;;;;;5051632;28;20476;-54
2022/07/04 07:30:47;;;;;;;4.55;1.08;;;32.20;57.90;;;;;;5033236;28;20086;-52
2022/07/04 07:33:12;;;;;;;2.28;0.90;;;32.10;58.50;;;;;;5051794;28;20037;-48
2022/07/04 07:35:38;;;;;;;6.03;0.75;;;32.20;57.90;;;;;;5051621;28;20108;-50
2022/07/04 07:38:06;;;;;;;2.53;0.60;;;31.80;58.00;;;;;;5032732;28;20454;-54
2022/07/04 07:40:31;;;;;;;3.60;0.70;;;31.90;58.80;;;;;;5051310;28;20021;-47
2022/07/04 07:42:57;;;;;;;3.38;0.85;;;32.50;58.20;;;;;;5052515;28;20174;-49
2022/07/04 07:45:23;;;;;;;0.82;0.63;;;33.20;56.60;;;;;;5050301;28;20035;-47
2022/07/04 07:47:48;;;;;;;0.55;0.52;;;34.00;56.20;;;;;;5051473;28;20060;-53
2022/07/04 07:50:14;;;;;;;7.88;0.90;;;34.50;54.40;;;;;;5046804;28;20080;-47
2022/07/04 07:52:39;;;;;;;1.65;0.70;;;34.40;54.90;;;;;;5050416;28;20079;-50
2022/07/04 07:55:05;;;;;;;2.38;0.77;;;33.80;54.50;;;;;;5051568;28;20100;-49
2022/07/04 07:57:30;;;;;;;3.47;0.75;;;32.90;55.70;;;;;;5051230;28;20028;-51
2022/07/04 07:59:56;;;;;;;2.38;0.80;;;32.90;55.80;;;;;;5052058;28;20138;-51
2022/07/04 08:05:07;;;;;;;1.50;0.50;;;34.10;55.20;;;;;;5051909;28;20052;-52
2022/07/04 08:07:33;;;;;;;2.80;0.70;;;34.60;52.90;;;;;;5033247;28;20028;-50
2022/07/04 08:09:59;;;;;;;6.13;0.75;;;34.70;53.40;;;;;;5047323;28;20040;-53
2022/07/04 08:12:24;;;;;;;1.58;0.60;;;34.80;53.20;;;;;;5032518;28;20036;-53
2022/07/04 08:14:50;;;;;;;0.30;0.30;;;34.70;52.80;;;;;;5032892;28;20025;-46
2022/07/04 08:17:16;;;;;;;26.45;22.33;;;35.00;53.50;;;;;;5033030;28;20025;-52
2022/07/04 08:19:41;;;;;;;10.02;7.20;;;35.10;52.40;;;;;;5035006;28;20034;-54
2022/07/04 08:22:07;;;;;;;2.45;0.73;;;34.90;52.80;;;;;;5033165;28;20030;-50
2022/07/04 08:24:32;;;;;;;1.80;0.70;;;34.90;53.60;;;;;;5050818;28;20082;-50
2022/07/04 08:26:58;;;;;;;0.55;0.50;;;33.30;53.20;;;;;;5049170;28;20063;-50
2022/07/04 08:29:23;;;;;;;2.72;0.68;;;32.50;55.80;;;;;;5048599;28;20036;-47
2022/07/04 08:31:49;;;;;;;2.60;0.90;;;31.90;56.40;;;;;;5049740;28;20029;-53
2022/07/04 08:34:15;;;;;;;3.30;1.10;;;31.50;57.10;;;;;;5049588;28;20028;-52
2022/07/04 08:36:41;;;;;;;5.07;0.70;;;30.90;57.80;;;;;;5031480;28;20032;-53
2022/07/04 08:39:06;;;;;;;2.92;1.27;;;29.70;59.10;;;;;;5013026;28;20419;-50
2022/07/04 08:41:37;;;;;;;1.58;0.73;;;29.30;59.60;;;;;;5013516;28;20523;-49
2022/07/04 08:44:06;;;;;;;5.78;1.00;;;28.90;60.10;;;;;;5039017;28;20025;-50
2022/07/04 08:46:32;;;;;;;2.00;0.70;;;28.80;60.60;;;;;;5050971;28;20022;-49
2022/07/04 08:49:01;;;;;;;1.88;0.70;;;28.90;60.40;;;;;;5050695;28;20369;-48
2022/07/04 08:51:52;;;;;;;3.38;0.80;;;29.10;61.20;;;;;;5051013;28;20480;-50
2022/07/04 08:59:50;;;;;;;0.57;0.57;;;29.20;59.80;;;;;;5050724;28;20151;-52
2022/07/04 09:02:18;;;;;;;2.47;0.80;;;29.10;60.40;;;;;;5033925;28;20044;-53
2022/07/04 09:04:44;;;;;;;1.63;0.70;;;28.80;61.10;;;;;;5050893;28;20036;-53
2022/07/04 09:07:12;;;;;;;2.13;0.82;;;28.70;61.70;;;;;;5050262;28;20032;-53
2022/07/04 09:09:40;;;;;;;3.45;0.82;;;28.70;61.80;;;;;;5050103;28;20031;-50
2022/07/04 09:12:06;;;;;;;3.35;0.63;;;28.60;61.10;;;;;;5051225;28;20496;-52
2022/07/04 09:14:33;;;;;;;2.63;1.00;;;28.70;61.70;;;;;;5050367;28;20029;-51
2022/07/04 09:16:59;;;;;;;3.05;1.05;;;28.70;62.20;;;;;;5039426;28;20592;-51
2022/07/04 09:19:25;;;;;;;3.58;0.70;;;28.50;60.90;;;;;;5050864;28;20025;-53
2022/07/04 09:21:50;;;;;;;3.47;0.93;;;28.20;61.50;;;;;;5050617;28;20025;-53
2022/07/04 09:24:16;;;;;;;4.00;1.10;;;28.00;62.50;;;;;;5050672;28;20021;-51
2022/07/04 09:26:46;;;;;;;1.23;0.98;;;27.90;63.30;;;;;;5050280;28;20357;-54
2022/07/04 09:29:12;;;;;;;10.25;1.30;;;27.80;63.20;;;;;;5046905;28;20021;-51
2022/07/04 09:31:39;;;;;;;105.75;85.88;;;27.00;63.80;;;;;;5031057;28;20033;-51
2022/07/04 09:34:06;;;;;;;2.03;1.45;;;26.80;67.30;;;;;;5042036;28;20020;-52
2022/07/04 09:36:41;;;;;;;2.05;0.88;;;26.90;66.80;;;;;;5054435;28;20434;-53
2022/07/04 09:39:21;;;;;;;4.22;0.77;;;26.90;65.50;;;;;;5053968;28;20029;-49
2022/07/04 09:41:55;;;;;;;3.30;0.90;;;26.50;71.00;;;;;;5054439;28;20108;-47
2022/07/04 09:44:26;;;;;;;7.93;1.05;;;26.90;65.10;;;;;;5054641;28;20078;-49
2022/07/04 09:46:51;;;;;;;3.20;0.95;;;27.00;65.20;;;;;;5039766;28;20029;-53
2022/07/04 09:49:17;;;;;;;1.33;0.80;;;27.10;65.40;;;;;;5034936;28;20036;-48
2022/07/04 09:51:45;;;;;;;2.45;0.80;;;27.00;64.60;;;;;;5034358;28;20037;-51
2022/07/04 09:54:21;;;;;;;4.30;0.90;;;27.10;64.50;;;;;;5016586;28;20103;-49
2022/07/04 09:56:49;;;;;;;5.88;0.95;;;26.90;65.60;;;;;;5033801;28;20026;-50
2022/07/04 09:59:15;;;;;;;3.15;0.80;;;26.80;70.30;;;;;;5033957;28;20032;-49
2022/07/04 10:01:41;;;;;;;1.83;0.80;;;26.40;65.10;;;;;;5034127;28;20021;-51
2022/07/04 10:04:08;;;;;;;1.33;0.88;;;26.40;65.50;;;;;;5034118;28;20037;-54
2022/07/04 10:06:37;;;;;;;5.90;1.02;;;26.60;64.80;;;;;;5034053;28;20032;-51
2022/07/04 10:09:14;;;;;;;5.90;1.05;;;26.60;63.00;;;;;;5033369;28;20033;-51
2022/07/04 10:11:41;;;;;;;7.70;0.80;;;26.30;63.40;;;;;;5016448;28;20033;-53
2022/07/04 10:14:09;;;;;;;2.17;0.68;;;26.50;64.00;;;;;;5034070;28;20396;-52
2022/07/04 10:16:36;;;;;;;3.97;0.90;;;26.50;63.70;;;;;;5033429;28;20060;-51
2022/07/04 10:19:03;;;;;;;4.28;0.85;;;26.70;63.40;;;;;;5033151;28;20017;-50
2022/07/04 10:21:29;;;;;;;1.15;0.90;;;26.60;62.90;;;;;;5033785;28;20478;-51
2022/07/04 10:23:54;;;;;;;1.80;0.60;;;26.60;62.30;;;;;;5051921;28;20028;-52
2022/07/04 10:26:22;;;;;;;3.33;1.10;;;26.70;63.00;;;;;;5053562;28;20036;-48
2022/07/04 10:28:48;;;;;;;1.73;0.70;;;26.60;62.70;;;;;;5052733;28;20049;-51
2022/07/04 10:31:15;;;;;;;3.33;0.73;;;26.60;63.70;;;;;;5053827;28;20079;-51
2022/07/04 10:33:41;;;;;;;0.75;0.55;;;26.70;64.10;;;;;;5053527;28;20101;-52
2022/07/04 10:36:30;;;;;;;3.50;0.80;;;26.60;64.40;;;;;;5053317;28;20397;-52
2022/07/04 10:38:59;;;;;;;3.78;0.90;;;26.50;64.60;;;;;;5052882;28;20029;-47
2022/07/04 10:41:26;;;;;;;1.33;0.68;;;26.50;64.70;;;;;;5036661;28;20036;-49
2022/07/04 10:43:53;;;;;;;2.83;1.48;;;26.60;64.80;;;;;;5036091;28;20107;-50
2022/07/04 10:46:26;;;;;;;1.05;0.60;;;26.60;64.60;;;;;;5051982;28;20492;-50
2022/07/04 10:49:02;;;;;;;1.70;0.70;;;26.60;65.60;;;;;;5052231;28;20038;-52
2022/07/04 10:51:48;;;;;;;3.50;0.85;;;26.50;66.10;;;;;;5038196;28;20033;-53
2022/07/04 10:54:38;;;;;;;1.35;0.60;;;26.60;65.50;;;;;;5049089;28;20396;-50
2022/07/04 10:57:20;;;;;;;4.70;0.80;;;26.60;65.10;;;;;;5042890;28;20514;-48
2022/07/04 10:59:55;;;;;;;4.68;0.75;;;26.70;63.90;;;;;;5052947;28;20017;-48
2022/07/04 11:02:23;;;;;;;5.95;1.00;;;26.60;63.10;;;;;;5052588;28;20017;-53
2022/07/04 11:05:30;;;;;;;1.60;0.82;;;26.30;64.90;;;;;;5052434;28;20032;-50
2022/07/04 11:07:57;;;;;;;1.70;0.68;;;26.30;65.70;;;;;;5043716;28;20032;-49
2022/07/04 11:10:22;;;;;;;6.82;4.18;;;26.20;66.50;;;;;;5052683;28;20039;-52
2022/07/04 11:12:54;;;;;;;3.22;1.50;;;26.20;65.40;;;;;;5052523;28;20099;-49
2022/07/04 11:15:32;;;;;;;2.97;1.52;;;25.90;65.40;;;;;;5051638;28;20041;-53
2022/07/04 11:18:08;;;;;;;4.97;0.90;;;25.80;66.70;;;;;;5051661;28;20037;-48
2022/07/04 11:20:36;;;;;;;2.40;0.88;;;25.80;67.80;;;;;;5052616;28;20063;-49
2022/07/04 11:23:11;;;;;;;9.30;0.80;;;25.80;65.80;;;;;;5052526;28;20060;-51
2022/07/04 11:25:39;;;;;;;0.65;0.45;;;25.60;66.60;;;;;;5052345;28;20499;-48
2022/07/04 11:28:22;;;;;;;2.33;0.98;;;25.60;66.70;;;;;;5033496;28;20120;-55
2022/07/04 11:31:00;;;;;;;7.78;0.85;;;25.70;66.20;;;;;;5034728;28;20052;-55
2022/07/04 11:33:29;;;;;;;0.82;0.68;;;25.80;67.20;;;;;;5051361;28;20477;-50
2022/07/04 11:36:14;;;;;;;0.80;0.80;;;25.80;68.60;;;;;;5051975;28;20028;-53
2022/07/04 11:38:54;;;;;;;3.65;0.95;;;25.90;66.80;;;;;;5032748;28;20025;-52
2022/07/04 11:47:21;;;;;;;3.63;0.70;;;25.70;66.10;;;;;;5050807;28;20614;-51
2022/07/04 11:49:51;;;;;;;0.50;0.50;;;25.50;66.60;;;;;;5051882;28;20025;-51
2022/07/04 11:52:20;;;;;;;1.58;0.60;;;25.30;69.10;;;;;;5051638;28;20432;-47
2022/07/04 11:54:47;;;;;;;3.05;0.73;;;25.30;67.20;;;;;;5051680;28;20082;-56
2022/07/04 11:57:33;;;;;;;1.55;0.60;;;25.30;67.40;;;;;;5032637;28;20373;-54
2022/07/04 12:00:00;;;;;;;1.77;0.43;;;25.30;68.00;;;;;;5051281;28;20398;-49
2022/07/04 12:02:28;;;;;;;3.72;0.73;;;25.30;67.50;;;;;;5051948;28;20021;-51
2022/07/04 12:04:54;;;;;;;0.50;0.40;;;25.30;64.20;;;;;;5033854;28;20348;-52
2022/07/04 12:07:21;;;;;;;4.50;1.17;;;25.30;63.20;;;;;;5033219;28;20112;-50
2022/07/04 12:09:47;;;;;;;1.45;0.60;;;25.30;64.60;;;;;;5051686;28;20028;-49
2022/07/04 12:12:15;;;;;;;1.45;0.43;;;25.40;64.60;;;;;;5051702;28;20492;-48
2022/07/04 12:15:08;;;;;;;1.00;0.40;;;25.50;62.80;;;;;;5050160;28;20029;-52
2022/07/04 12:17:36;;;;;;;4.22;0.55;;;25.70;61.40;;;;;;5050971;28;20039;-50
2022/07/04 12:20:11;;;;;;;1.25;0.50;;;25.60;60.10;;;;;;5051428;28;20075;-47
2022/07/04 12:22:39;;;;;;;0.65;0.65;;;25.60;61.90;;;;;;5051585;28;20049;-51
2022/07/04 12:25:07;;;;;;;3.13;0.50;;;25.50;61.60;;;;;;5051342;28;20029;-52
2022/07/04 12:27:34;;;;;;;1.20;0.38;;;25.60;60.30;;;;;;5050744;28;20029;-53
2022/07/04 12:30:00;;;;;;;0.90;0.40;;;25.60;60.50;;;;;;5051463;28;20028;-48
2022/07/04 12:32:46;;;;;;;2.35;2.15;;;25.60;59.80;;;;;;5051334;28;20040;-48
2022/07/04 12:35:35;;;;;;;4.43;1.13;;;25.30;60.30;;;;;;5051086;28;20078;-50
2022/07/04 12:38:16;;;;;;;0.50;0.50;;;25.60;58.60;;;;;;5050637;28;20108;-51
2022/07/04 12:41:01;;;;;;;6.50;0.57;;;25.50;59.90;;;;;;5051224;28;20025;-53
2022/07/04 12:43:52;;;;;;;0.63;0.38;;;25.50;61.40;;;;;;5051538;28;20396;-48
2022/07/04 12:46:23;;;;;;;2.50;0.65;;;25.40;60.90;;;;;;5050984;28;20523;-54
2022/07/04 12:48:49;;;;;;;1.90;1.30;;;25.60;61.70;;;;;;5050398;28;20400;-47
2022/07/04 12:51:19;;;;;;;1.25;0.55;;;25.70;61.40;;;;;;5051122;28;20025;-48
2022/07/04 12:53:46;;;;;;;3.45;0.98;;;25.70;61.10;;;;;;5051111;28;20488;-53
2022/07/04 12:56:32;;;;;;;1.00;0.47;;;25.80;60.30;;;;;;5051194;28;20235;-48
2022/07/04 12:59:02;;;;;;;1.83;0.70;;;25.80;59.70;;;;;;5050340;28;20115;-51
2022/07/04 13:01:27;;;;;;;2.95;0.50;;;25.80;59.90;;;;;;5032857;28;20120;-48
2022/07/04 13:03:53;;;;;;;1.25;0.40;;;25.90;62.80;;;;;;5051413;28;20091;-49
2022/07/04 13:06:19;;;;;;;3.78;0.82;;;25.80;60.20;;;;;;5050943;28;20029;-52
2022/07/04 13:08:45;;;;;;;1.67;0.47;;;25.80;60.10;;;;;;5052296;28;20029;-54
2022/07/04 13:13:55;;;;;;;0.47;0.47;;;25.80;61.30;;;;;;5053292;28;20110;-49
2022/07/04 13:16:21;;;;;;;0.90;0.50;;;25.80;62.60;;;;;;5065512;22;20096;-54
2022/07/04 13:18:46;;;;;;;2.70;1.20;;;25.90;61.20;;;;;;5034327;28;20104;-53